createdAt,value
2022-09-11T00:02:50.567Z,90.80
2022-09-11T00:07:04.515Z,90.90
2022-09-11T00:11:20.353Z,90.90
2022-09-11T00:15:39.126Z,91.00
2022-09-11T00:19:55.408Z,91.00
2022-09-11T00:24:10.321Z,91.00
2022-09-11T00:28:25.896Z,91.10
2022-09-11T00:32:40.031Z,91.20
2022-09-11T00:36:55.122Z,91.10
2022-09-11T00:41:16.880Z,91.00
2022-09-11T00:45:32.227Z,90.90
2022-09-11T00:49:51.096Z,91.10
2022-09-11T00:54:07.341Z,90.80
2022-09-11T00:58:26.979Z,90.80
2022-09-11T01:02:43.196Z,90.80
2022-09-11T01:06:58.906Z,90.80
2022-09-11T01:11:32.617Z,90.80
2022-09-11T01:15:53.748Z,91.00
2022-09-11T01:20:26.445Z,91.00
2022-09-11T01:24:56.476Z,91.00
2022-09-11T01:29:19.350Z,91.00
2022-09-11T01:33:41.475Z,90.90
2022-09-11T01:38:03.338Z,90.90
2022-09-11T01:42:23.110Z,90.90
2022-09-11T01:46:42.932Z,91.00
2022-09-11T01:51:02.596Z,91.10
2022-09-11T01:55:20.716Z,91.10
2022-09-11T01:59:40.787Z,91.10
2022-09-11T02:04:02.050Z,91.10
2022-09-11T02:08:19.649Z,91.20
2022-09-11T02:12:42.049Z,91.40
2022-09-11T02:17:08.890Z,91.50
2022-09-11T02:21:25.704Z,91.60
2022-09-11T02:25:39.989Z,91.50
2022-09-11T02:29:54.837Z,91.60
2022-09-11T02:34:09.819Z,91.70
2022-09-11T02:38:34.273Z,91.80
2022-09-11T02:43:16.156Z,91.90
2022-09-11T02:47:42.545Z,92.10
2022-09-11T02:52:05.650Z,92.20
2022-09-11T02:56:29.857Z,92.30
2022-09-11T03:00:46.822Z,92.50
2022-09-11T03:05:01.522Z,92.60
2022-09-11T03:09:15.558Z,92.80
2022-09-11T03:13:32.426Z,92.90
2022-09-11T03:17:47.528Z,92.90
2022-09-11T03:22:03.053Z,93.00
2022-09-11T03:26:17.387Z,93.10
2022-09-11T03:30:36.355Z,93.20
2022-09-11T03:34:50.509Z,93.20
2022-09-11T03:39:04.754Z,93.30
2022-09-11T03:43:19.441Z,93.50
2022-09-11T03:47:34.982Z,93.50
2022-09-11T03:51:48.871Z,93.60
2022-09-11T03:56:04.021Z,94.00
2022-09-11T04:00:23.832Z,93.80
2022-09-11T04:04:43.055Z,93.90
2022-09-11T04:08:57.771Z,93.90
2022-09-11T04:13:12.058Z,94.00
2022-09-11T04:17:25.959Z,94.10
2022-09-11T04:21:42.563Z,94.20
2022-09-11T04:25:56.657Z,94.30
2022-09-11T04:30:11.526Z,94.40
2022-09-11T04:34:26.298Z,94.40
2022-09-11T04:38:41.913Z,94.20
2022-09-11T04:42:58.996Z,94.00
2022-09-11T04:47:12.822Z,93.90
2022-09-11T04:51:30.239Z,94.00
2022-09-11T04:55:46.580Z,94.00
2022-09-11T05:00:01.711Z,94.10
2022-09-11T05:04:20.832Z,94.20
2022-09-11T05:08:37.387Z,93.70
2022-09-11T05:12:54.081Z,93.30
2022-09-11T05:17:08.077Z,93.20
2022-09-11T05:21:28.019Z,93.20
2022-09-11T05:25:41.830Z,93.30
2022-09-11T05:29:56.917Z,94.00
2022-09-11T05:34:11.073Z,93.80
2022-09-11T05:38:24.889Z,92.30
2022-09-11T05:42:42.621Z,92.20
2022-09-11T05:46:58.473Z,91.30
2022-09-11T05:51:14.660Z,90.40
2022-09-11T05:55:28.464Z,90.40
2022-09-11T05:59:42.786Z,90.60
2022-09-11T06:03:58.353Z,91.10
2022-09-11T06:08:13.713Z,91.90
2022-09-11T06:12:28.374Z,92.20
2022-09-11T06:16:44.436Z,90.00
2022-09-11T06:21:07.079Z,83.90
2022-09-11T06:25:27.744Z,80.00
2022-09-11T06:29:42.086Z,78.50
2022-09-11T06:33:56.361Z,79.00
2022-09-11T06:38:11.598Z,80.00
2022-09-11T06:42:26.259Z,81.60
2022-09-11T06:46:40.640Z,83.00
2022-09-11T06:50:57.234Z,84.10
2022-09-11T06:55:14.562Z,86.00
2022-09-11T06:59:34.927Z,86.20
2022-09-11T07:03:51.008Z,86.50
2022-09-11T07:08:06.641Z,86.50
2022-09-11T07:12:25.192Z,87.00
2022-09-11T07:16:39.488Z,87.40
2022-09-11T07:20:57.557Z,87.90
2022-09-11T07:25:11.280Z,88.00
2022-09-11T07:29:31.573Z,87.70
2022-09-11T07:33:48.845Z,87.90
2022-09-11T07:38:02.706Z,88.10
2022-09-11T07:42:20.142Z,87.40
2022-09-11T07:46:36.159Z,87.00
2022-09-11T07:50:58.177Z,86.60
2022-09-11T07:55:13.412Z,86.40
2022-09-11T07:59:27.861Z,85.80
2022-09-11T08:03:44.173Z,85.20
2022-09-11T08:08:03.080Z,85.10
2022-09-11T08:12:17.726Z,85.10
2022-09-11T08:16:36.453Z,84.80
2022-09-11T08:20:52.501Z,84.90
2022-09-11T08:25:07.124Z,84.60
2022-09-11T08:29:20.947Z,84.80
2022-09-11T08:33:36.088Z,84.50
2022-09-11T08:37:54.825Z,84.60
2022-09-11T08:42:15.085Z,84.30
2022-09-11T08:46:35.164Z,84.20
2022-09-11T08:50:50.092Z,83.90
2022-09-11T08:55:06.383Z,84.00
2022-09-11T08:59:33.739Z,83.40
2022-09-11T09:04:00.263Z,82.80
2022-09-11T09:08:37.348Z,82.40
2022-09-11T09:13:04.831Z,82.40
2022-09-11T09:17:22.760Z,82.30
2022-09-11T09:21:45.407Z,82.20
2022-09-11T09:25:59.223Z,82.20
2022-09-11T09:30:18.197Z,82.00
2022-09-11T09:34:35.048Z,81.80
2022-09-11T09:38:50.209Z,81.60
2022-09-11T09:43:40.320Z,81.70
2022-09-11T09:47:55.375Z,81.90
2022-09-11T09:52:18.227Z,82.10
2022-09-11T09:56:34.958Z,82.20
2022-09-11T10:00:48.642Z,82.00
2022-09-11T10:05:18.084Z,82.00
2022-09-11T10:09:32.311Z,82.40
2022-09-11T10:13:55.577Z,82.70
2022-09-11T10:18:33.946Z,82.50
2022-09-11T10:22:49.567Z,82.20
2022-09-11T10:27:04.967Z,82.10
2022-09-11T10:31:20.630Z,82.00
2022-09-11T10:35:36.526Z,81.30
2022-09-11T10:39:55.217Z,80.30
2022-09-11T10:44:16.019Z,79.70
2022-09-11T10:48:29.887Z,80.00
2022-09-11T10:52:54.381Z,80.60
2022-09-11T10:57:17.980Z,81.00
2022-09-11T11:01:31.646Z,81.50
2022-09-11T11:05:54.695Z,82.90
2022-09-11T11:10:21.978Z,84.70
2022-09-11T11:15:09.511Z,86.00
2022-09-11T11:19:36.977Z,87.00
2022-09-11T11:24:05.772Z,88.00
2022-09-11T11:28:32.413Z,89.30
2022-09-11T11:33:01.148Z,90.30
2022-09-11T11:37:21.327Z,91.00
2022-09-11T11:41:44.549Z,91.50
2022-09-11T11:46:04.614Z,91.70
2022-09-11T11:50:31.115Z,92.00
2022-09-11T11:54:52.305Z,92.20
2022-09-11T11:59:12.980Z,92.30
2022-09-11T12:03:34.342Z,92.30
2022-09-11T12:07:49.555Z,92.20
2022-09-11T12:12:08.007Z,92.40
2022-09-11T12:16:27.913Z,92.60
2022-09-11T12:20:43.086Z,92.80
2022-09-11T12:24:59.779Z,92.80
2022-09-11T12:29:52.722Z,92.50
2022-09-11T12:34:17.408Z,91.60
2022-09-11T12:38:38.115Z,90.70
2022-09-11T12:43:27.705Z,90.00
2022-09-11T12:47:41.807Z,88.10
2022-09-11T12:51:58.497Z,86.60
2022-09-11T12:56:19.359Z,84.60
2022-09-11T13:00:39.924Z,83.40
2022-09-11T13:04:54.878Z,81.90
2022-09-11T13:09:18.246Z,81.60
2022-09-11T13:13:45.167Z,81.20
2022-09-11T13:18:00.415Z,80.10
2022-09-11T13:22:25.645Z,79.50
2022-09-11T13:26:43.121Z,78.40
2022-09-11T13:31:00.554Z,77.80
2022-09-11T13:35:17.928Z,75.20
2022-09-11T13:39:42.794Z,74.40
2022-09-11T13:43:58.601Z,74.00
2022-09-11T13:48:22.931Z,73.00
2022-09-11T13:52:38.293Z,72.30
2022-09-11T13:57:12.875Z,72.00
2022-09-11T14:01:26.746Z,71.10
2022-09-11T14:05:50.430Z,70.80
2022-09-11T14:10:08.249Z,70.60
2022-09-11T14:14:25.395Z,70.70
2022-09-11T14:18:45.458Z,71.00
2022-09-11T14:23:04.395Z,70.70
2022-09-11T14:27:38.476Z,70.70
2022-09-11T14:31:53.782Z,70.80
2022-09-11T14:36:15.076Z,69.90
2022-09-11T14:40:28.827Z,69.00
2022-09-11T14:44:44.328Z,69.00
2022-09-11T14:48:58.102Z,68.70
2022-09-11T14:53:18.751Z,68.50
2022-09-11T14:57:35.173Z,67.90
2022-09-11T15:01:52.148Z,67.70
2022-09-11T15:06:06.404Z,67.90
2022-09-11T15:10:20.346Z,67.40
2022-09-11T15:14:55.111Z,66.80
2022-09-11T15:19:09.526Z,66.50
2022-09-11T15:23:23.682Z,65.70
2022-09-11T15:27:37.406Z,64.80
2022-09-11T15:31:51.379Z,65.10
2022-09-11T15:36:06.982Z,65.50
2022-09-11T15:40:21.252Z,66.00
2022-09-11T15:44:36.650Z,66.10
2022-09-11T15:48:50.935Z,66.30
2022-09-11T15:53:06.270Z,66.60
2022-09-11T15:57:20.458Z,66.90
2022-09-11T16:01:37.459Z,67.20
2022-09-11T16:05:51.273Z,66.70
2022-09-11T16:10:07.502Z,66.50
2022-09-11T16:14:23.360Z,66.40
2022-09-11T16:18:38.884Z,66.40
2022-09-11T16:22:52.531Z,66.50
2022-09-11T16:27:09.256Z,66.50
2022-09-11T16:31:22.987Z,66.60
2022-09-11T16:35:36.909Z,66.50
2022-09-11T16:39:51.070Z,66.60
2022-09-11T16:44:07.646Z,66.90
2022-09-11T16:48:21.437Z,67.30
2022-09-11T16:52:35.826Z,67.50
2022-09-11T16:56:54.247Z,68.30
2022-09-11T17:01:16.561Z,68.50
2022-09-11T17:05:34.078Z,68.00
2022-09-11T17:09:48.340Z,67.70
2022-09-11T17:14:02.923Z,67.80
2022-09-11T17:18:33.134Z,68.10
2022-09-11T17:23:09.201Z,68.40
2022-09-11T17:27:31.922Z,69.00
2022-09-11T17:32:16.666Z,69.50
2022-09-11T17:36:35.438Z,69.90
2022-09-11T17:40:49.140Z,70.40
2022-09-11T17:45:03.874Z,70.80
2022-09-11T17:49:25.104Z,71.30
2022-09-11T17:53:45.184Z,71.80
2022-09-11T17:58:05.409Z,72.10
2022-09-11T18:02:38.380Z,72.40
2022-09-11T18:06:59.210Z,72.60
2022-09-11T18:11:18.369Z,72.90
2022-09-11T18:15:32.641Z,73.10
2022-09-11T18:19:50.152Z,73.90
2022-09-11T18:24:19.961Z,73.40
2022-09-11T18:28:39.778Z,74.50
2022-09-11T18:32:56.287Z,73.70
2022-09-11T18:37:12.835Z,73.90
2022-09-11T18:41:38.529Z,74.00
2022-09-11T18:45:53.890Z,74.30
2022-09-11T18:50:11.020Z,75.00
2022-09-11T18:54:25.584Z,75.60
2022-09-11T18:58:42.537Z,76.20
2022-09-11T19:02:59.707Z,76.30
2022-09-11T19:07:14.824Z,76.30
2022-09-11T19:11:33.966Z,76.50
2022-09-11T19:15:56.383Z,76.80
2022-09-11T19:20:12.260Z,77.80
2022-09-11T19:24:28.276Z,78.40
2022-09-11T19:28:43.864Z,78.90
2022-09-11T19:32:58.091Z,79.10
2022-09-11T19:37:14.618Z,79.90
2022-09-11T19:41:30.688Z,80.90
2022-09-11T19:45:44.450Z,81.10
2022-09-11T19:50:00.201Z,81.40
2022-09-11T19:54:15.831Z,82.30
2022-09-11T19:58:31.325Z,83.00
2022-09-11T20:02:45.884Z,83.60
2022-09-11T20:07:00.428Z,84.00
2022-09-11T20:11:17.651Z,84.30
2022-09-11T20:15:31.816Z,84.80
2022-09-11T20:19:45.930Z,85.00
2022-09-11T20:24:00.439Z,85.30
2022-09-11T20:28:16.014Z,85.90
2022-09-11T20:32:37.829Z,86.30
2022-09-11T20:36:55.095Z,87.20
2022-09-11T20:41:10.729Z,87.80
2022-09-11T20:45:26.268Z,88.30
2022-09-11T20:49:43.436Z,88.60
2022-09-11T20:53:57.747Z,89.30
2022-09-11T20:58:12.110Z,90.00
2022-09-11T21:02:27.836Z,90.20
2022-09-11T21:06:44.254Z,90.30
2022-09-11T21:11:02.805Z,90.30
2022-09-11T21:15:19.344Z,90.30
2022-09-11T21:19:36.026Z,90.40
2022-09-11T21:23:54.820Z,90.50
2022-09-11T21:28:14.466Z,90.50
2022-09-11T21:32:28.325Z,90.50
2022-09-11T21:36:55.918Z,90.40
2022-09-11T21:41:12.690Z,90.30
2022-09-11T21:45:27.080Z,90.10
2022-09-11T21:49:41.684Z,90.10
2022-09-11T21:53:59.058Z,90.20
2022-09-11T21:58:22.660Z,90.20
2022-09-11T22:02:36.608Z,90.20
2022-09-11T22:06:50.367Z,90.10
2022-09-11T22:11:06.188Z,90.10
2022-09-11T22:15:19.884Z,90.20
2022-09-11T22:19:33.645Z,90.00
2022-09-11T22:23:47.333Z,90.00
2022-09-11T22:28:02.599Z,90.10
2022-09-11T22:32:16.300Z,90.20
2022-09-11T22:36:31.062Z,90.40
2022-09-11T22:40:44.841Z,90.80
2022-09-11T22:44:59.998Z,91.00
2022-09-11T22:49:13.878Z,91.00
2022-09-11T22:53:28.854Z,91.00
2022-09-11T22:57:42.559Z,91.00
2022-09-11T23:01:57.842Z,91.00
2022-09-11T23:06:29.437Z,91.00
2022-09-11T23:10:44.030Z,90.90
2022-09-11T23:14:58.164Z,90.70
2022-09-11T23:19:14.999Z,90.60
2022-09-11T23:23:28.674Z,90.40
2022-09-11T23:27:44.235Z,90.20
2022-09-11T23:31:58.012Z,90.10
2022-09-11T23:36:14.844Z,89.90
2022-09-11T23:40:33.214Z,89.70
2022-09-11T23:44:47.115Z,89.60
2022-09-11T23:49:00.871Z,89.70
2022-09-11T23:53:15.959Z,89.70
2022-09-11T23:57:29.658Z,89.60
